Haley, North Dakota
Current Conditions -  °F | °C
As of 3:53 PM on Tuesday 25 Nov 2014 (Local Time) from KHEI Reporting Station
Overcast Overcast  
Wind Chill: 23°   Ceiling: 4400
Heat Index: 35°   Visibility: 10mi
Dew Point: 28°   Wind: 24mph
Humidity: 76%   Direction: 310°NW
Pressure: 29.75"   Gusts: 35mph
Location:  46.1126°N, 103.12°W
Report Text: KHEI 252253Z AUTO 31021G30KT 10SM FEW026 SCT035 OVC044 02/M02 A2975 RMK AO2 PK WND 31032/2239 SLP103 T00171022
Loading
Personal Weather Stations






























Interactive Weather Map New forecast layout! Learn more

10-Day Weather Forecast

Advertisements
Track Severe Weather on mobile